Groveland, New York
Current Conditions -  °F | °C
As of 8:54 AM on Monday 24 Nov 2014 (Local Time) from KDSV Reporting Station
Clear Clear  
Wind Chill: 63°   Ceiling: Unl
Heat Index: 63°   Visibility: 10mi
Dew Point: 51°   Wind: 14mph
Humidity: 65%   Direction: 150°SSE
Pressure: 29.38"   Gusts: NA
Location:  42.66°N, 77.77°W
Report Text: KDSV 241354Z AUTO 15012KT 10SM CLR 17/11 A2938 RMK AO2 SLP958 T01720106
Loading
Personal Weather Stations






























Interactive Weather Map New forecast layout! Learn more

10-Day Weather Forecast

Advertisements
Track Severe Weather on mobile